createdAt,value
2022-12-28T00:00:00.590Z,63.60
2022-12-28T00:00:32.133Z,62.70
2022-12-28T00:01:03.782Z,62.50
2022-12-28T00:01:35.569Z,62.90
2022-12-28T00:02:07.151Z,62.70
2022-12-28T00:02:38.800Z,62.80
2022-12-28T00:03:10.510Z,62.80
2022-12-28T00:03:42.048Z,62.80
2022-12-28T00:04:13.590Z,62.70
2022-12-28T00:04:45.118Z,62.70
2022-12-28T00:05:16.644Z,62.70
2022-12-28T00:05:48.169Z,62.50
2022-12-28T00:06:19.660Z,62.70
2022-12-28T00:06:51.187Z,62.60
2022-12-28T00:07:22.724Z,62.50
2022-12-28T00:07:54.299Z,62.50
2022-12-28T00:08:25.828Z,62.50
2022-12-28T00:08:57.369Z,62.50
2022-12-28T00:09:28.903Z,62.10
2022-12-28T00:10:03.078Z,62.20
2022-12-28T00:11:08.238Z,62.10
2022-12-28T00:11:28.029Z,62.10
2022-12-28T00:12:02.383Z,62.20
2022-12-28T00:12:33.917Z,62.20
2022-12-28T00:13:05.447Z,62.20
2022-12-28T00:13:37.133Z,62.30
2022-12-28T00:14:08.676Z,62.40
2022-12-28T00:14:40.200Z,62.40
2022-12-28T00:15:11.761Z,62.40
2022-12-28T00:15:43.315Z,62.40
2022-12-28T00:16:14.857Z,62.50
2022-12-28T00:16:46.457Z,62.50
2022-12-28T00:17:18.117Z,62.50
2022-12-28T00:17:49.656Z,62.50
2022-12-28T00:18:21.208Z,62.50
2022-12-28T00:18:52.729Z,62.70
2022-12-28T00:19:24.295Z,62.70
2022-12-28T00:19:55.899Z,62.70
2022-12-28T00:20:27.409Z,62.80
2022-12-28T00:20:59.087Z,62.80
2022-12-28T00:21:30.632Z,62.80
2022-12-28T00:22:02.127Z,62.80
2022-12-28T00:22:33.696Z,62.80
2022-12-28T00:23:05.204Z,62.90
2022-12-28T00:23:36.814Z,62.90
2022-12-28T00:24:08.339Z,62.80
2022-12-28T00:24:39.841Z,62.90
2022-12-28T00:25:11.388Z,62.90
2022-12-28T00:25:42.920Z,62.80
2022-12-28T00:26:14.415Z,63.00
2022-12-28T00:26:45.932Z,62.90
2022-12-28T00:27:17.470Z,63.00
2022-12-28T00:27:48.989Z,63.00
2022-12-28T00:28:20.509Z,63.00
2022-12-28T00:28:53.532Z,63.00
2022-12-28T00:29:27.197Z,63.00
2022-12-28T00:29:58.743Z,63.10
2022-12-28T00:30:30.245Z,63.00
2022-12-28T00:31:01.740Z,63.10
2022-12-28T00:31:33.290Z,63.00
2022-12-28T00:32:04.927Z,63.00
2022-12-28T00:32:36.507Z,63.00
2022-12-28T00:33:08.050Z,63.90
2022-12-28T00:33:39.569Z,63.80
2022-12-28T00:34:11.148Z,63.10
2022-12-28T00:34:42.699Z,63.00
2022-12-28T00:35:14.181Z,63.10
2022-12-28T00:35:45.663Z,63.10
2022-12-28T00:36:17.160Z,63.10
2022-12-28T00:37:08.482Z,63.10
2022-12-28T00:37:40.116Z,63.10
2022-12-28T00:38:11.611Z,63.10
2022-12-28T00:38:43.123Z,63.10
2022-12-28T00:39:14.620Z,63.10
2022-12-28T00:39:46.130Z,63.40
2022-12-28T00:40:23.597Z,63.10
2022-12-28T00:40:55.537Z,63.20
2022-12-28T00:41:27.030Z,63.20
2022-12-28T00:41:58.518Z,63.20
2022-12-28T00:42:30.015Z,63.20
2022-12-28T00:43:01.523Z,63.20
2022-12-28T00:43:33.021Z,63.20
2022-12-28T00:44:04.547Z,63.20
2022-12-28T00:44:36.053Z,63.20
2022-12-28T00:45:07.571Z,63.20
2022-12-28T00:45:39.079Z,63.20
2022-12-28T00:46:10.613Z,63.20
2022-12-28T00:46:42.150Z,63.20
2022-12-28T00:47:13.651Z,63.30
2022-12-28T00:47:45.153Z,63.10
2022-12-28T00:48:16.664Z,63.20
2022-12-28T00:48:48.147Z,63.10
2022-12-28T00:49:19.671Z,63.10
2022-12-28T00:49:51.163Z,63.20
2022-12-28T00:50:22.689Z,63.10
2022-12-28T00:50:54.185Z,63.10
2022-12-28T00:51:25.684Z,63.10
2022-12-28T00:51:57.195Z,63.10
2022-12-28T00:52:28.680Z,63.10
2022-12-28T00:53:00.187Z,63.10
2022-12-28T00:53:31.717Z,63.10
2022-12-28T00:54:03.210Z,63.10
2022-12-28T00:54:34.702Z,63.10
2022-12-28T00:55:06.194Z,63.10
2022-12-28T00:55:37.687Z,63.00
2022-12-28T00:56:09.182Z,62.30
2022-12-28T00:56:40.765Z,62.40
2022-12-28T00:57:12.340Z,62.20
2022-12-28T00:57:43.835Z,62.20
2022-12-28T00:58:15.316Z,62.30
2022-12-28T00:58:46.828Z,62.40
2022-12-28T00:59:18.330Z,62.70
2022-12-28T00:59:49.842Z,62.80
2022-12-28T01:00:21.337Z,62.90
2022-12-28T01:00:52.860Z,63.00
2022-12-28T01:01:24.495Z,63.10
2022-12-28T01:01:56.261Z,63.10
2022-12-28T01:02:27.822Z,63.10
2022-12-28T01:02:59.325Z,63.20
2022-12-28T01:03:30.920Z,63.20
2022-12-28T01:04:02.504Z,63.20
2022-12-28T01:04:34.005Z,63.20
2022-12-28T01:05:05.493Z,63.20
2022-12-28T01:05:37.149Z,63.20
2022-12-28T01:06:08.636Z,63.30
2022-12-28T01:06:40.133Z,63.40
2022-12-28T01:07:11.650Z,63.40
2022-12-28T01:07:50.728Z,63.40
2022-12-28T01:08:22.295Z,63.50
2022-12-28T01:08:53.853Z,63.60
2022-12-28T01:09:25.432Z,63.70
2022-12-28T01:09:57.011Z,63.70
2022-12-28T01:10:28.578Z,63.70
2022-12-28T01:11:00.181Z,63.70
2022-12-28T01:11:31.787Z,63.70
2022-12-28T01:12:03.375Z,63.80
2022-12-28T01:12:38.360Z,63.80
2022-12-28T01:13:10.152Z,63.70
2022-12-28T01:13:41.720Z,63.70
2022-12-28T01:14:13.301Z,63.80
2022-12-28T01:14:44.867Z,63.80
2022-12-28T01:15:16.445Z,63.80
2022-12-28T01:15:48.031Z,63.80
2022-12-28T01:16:19.779Z,63.80
2022-12-28T01:16:51.399Z,63.80
2022-12-28T01:17:23.850Z,63.80
2022-12-28T01:17:55.392Z,63.80
2022-12-28T01:18:26.957Z,63.80
2022-12-28T01:18:58.563Z,63.90
2022-12-28T01:19:30.177Z,63.90
2022-12-28T01:20:01.755Z,63.90
2022-12-28T01:20:33.336Z,63.90
2022-12-28T01:21:04.916Z,63.90
2022-12-28T01:21:36.504Z,64.00
2022-12-28T01:22:08.075Z,64.00
2022-12-28T01:22:39.644Z,63.80
2022-12-28T01:23:11.220Z,63.80
2022-12-28T01:23:42.858Z,63.80
2022-12-28T01:24:14.578Z,64.00
2022-12-28T01:24:46.161Z,63.80
2022-12-28T01:25:17.741Z,63.80
2022-12-28T01:25:49.333Z,63.80
2022-12-28T01:26:20.893Z,64.00
2022-12-28T01:26:52.472Z,63.80
2022-12-28T01:27:24.034Z,63.80
2022-12-28T01:27:55.623Z,64.00
2022-12-28T01:28:27.333Z,63.90
2022-12-28T01:28:58.917Z,63.90
2022-12-28T01:29:30.572Z,64.00
2022-12-28T01:30:02.140Z,64.10
2022-12-28T01:30:33.675Z,64.00
2022-12-28T01:31:10.720Z,63.90
2022-12-28T01:31:42.339Z,63.90
2022-12-28T01:32:13.920Z,64.00
2022-12-28T01:32:45.535Z,64.00
2022-12-28T01:33:17.098Z,63.90
2022-12-28T01:33:48.718Z,64.00
2022-12-28T01:34:20.433Z,64.00
2022-12-28T01:34:52.039Z,64.10
2022-12-28T01:35:23.628Z,62.60
2022-12-28T01:35:55.191Z,62.70
2022-12-28T01:36:26.774Z,62.70
2022-12-28T01:36:58.348Z,62.70
2022-12-28T01:37:29.912Z,62.70
2022-12-28T01:38:01.464Z,62.60
2022-12-28T01:38:33.117Z,62.80
2022-12-28T01:39:04.682Z,62.70
2022-12-28T01:39:36.254Z,62.70
2022-12-28T01:40:07.857Z,62.70
2022-12-28T01:40:39.416Z,62.60
2022-12-28T01:41:10.994Z,62.60
2022-12-28T01:41:42.562Z,62.60
2022-12-28T01:42:14.121Z,62.70
2022-12-28T01:42:45.665Z,62.60
2022-12-28T01:43:29.921Z,62.70
2022-12-28T01:44:02.543Z,62.80
2022-12-28T01:44:34.101Z,62.20
2022-12-28T01:45:05.792Z,62.10
2022-12-28T01:45:37.476Z,62.10
2022-12-28T01:46:09.094Z,62.10
2022-12-28T01:46:40.701Z,62.10
2022-12-28T01:47:12.263Z,62.10
2022-12-28T01:47:43.848Z,62.10
2022-12-28T01:48:15.426Z,62.10
2022-12-28T01:48:47.173Z,62.10
2022-12-28T01:49:18.832Z,62.10
2022-12-28T01:49:50.395Z,62.10
2022-12-28T01:50:21.978Z,62.10
2022-12-28T01:50:53.588Z,62.10
2022-12-28T01:51:25.171Z,62.10
2022-12-28T01:51:56.745Z,62.20
2022-12-28T01:52:28.339Z,62.20
2022-12-28T01:53:00.028Z,62.20
2022-12-28T01:53:31.647Z,62.20
2022-12-28T01:54:03.235Z,62.20
2022-12-28T01:54:34.800Z,62.30
2022-12-28T01:55:06.371Z,62.30
2022-12-28T01:55:37.968Z,62.20
2022-12-28T01:56:09.593Z,62.30
2022-12-28T01:56:41.203Z,62.30
2022-12-28T01:57:12.756Z,62.20
2022-12-28T01:57:44.310Z,62.40
2022-12-28T01:58:15.882Z,62.40
2022-12-28T01:58:47.470Z,62.30
2022-12-28T01:59:19.122Z,62.30
2022-12-28T01:59:50.703Z,62.40
2022-12-28T02:00:22.277Z,62.40
2022-12-28T02:00:53.857Z,62.40
2022-12-28T02:01:25.622Z,62.40
2022-12-28T02:01:57.459Z,62.40
2022-12-28T02:02:29.361Z,62.40
2022-12-28T02:03:01.085Z,62.40
2022-12-28T02:03:32.677Z,62.40
2022-12-28T02:04:04.248Z,62.40
2022-12-28T02:04:35.803Z,62.40
2022-12-28T02:05:07.349Z,62.40
2022-12-28T02:05:38.903Z,62.40
2022-12-28T02:06:10.452Z,62.40
2022-12-28T02:06:42.068Z,62.30
2022-12-28T02:07:13.614Z,62.50
2022-12-28T02:07:45.255Z,62.40
2022-12-28T02:08:16.814Z,62.40
2022-12-28T02:08:48.446Z,62.40
2022-12-28T02:09:20.026Z,62.50
2022-12-28T02:10:40.736Z,62.40
2022-12-28T02:10:45.775Z,62.40
2022-12-28T02:11:17.755Z,62.40
2022-12-28T02:11:49.355Z,62.40
2022-12-28T02:12:20.927Z,62.40
2022-12-28T02:12:52.556Z,62.40
2022-12-28T02:13:24.198Z,62.40
2022-12-28T02:13:55.763Z,62.40
2022-12-28T02:14:27.338Z,62.40
2022-12-28T02:14:58.910Z,62.50
2022-12-28T02:15:30.482Z,62.40
2022-12-28T02:16:02.085Z,62.40
2022-12-28T02:16:33.666Z,62.50
2022-12-28T02:17:05.297Z,62.40
2022-12-28T02:17:36.881Z,62.50
2022-12-28T02:18:08.445Z,62.40
2022-12-28T02:18:40.007Z,62.40
2022-12-28T02:19:12.404Z,62.40
2022-12-28T02:19:43.959Z,62.40
2022-12-28T02:20:15.509Z,62.50
2022-12-28T02:20:47.113Z,63.20
2022-12-28T02:21:18.711Z,62.50
2022-12-28T02:21:50.276Z,63.20
2022-12-28T02:22:21.863Z,62.50
2022-12-28T02:22:53.422Z,62.50
2022-12-28T02:23:25.017Z,62.50
2022-12-28T02:23:56.585Z,62.40
2022-12-28T02:24:28.176Z,63.30
2022-12-28T02:25:11.431Z,62.40
2022-12-28T02:25:44.845Z,62.40
2022-12-28T02:26:16.413Z,62.40
2022-12-28T02:26:47.982Z,62.40
2022-12-28T02:27:19.624Z,62.40
2022-12-28T02:27:51.184Z,62.40
2022-12-28T02:28:22.747Z,62.40
2022-12-28T02:28:54.341Z,62.30
2022-12-28T02:29:25.897Z,63.10
2022-12-28T02:29:57.451Z,62.30
2022-12-28T02:30:29.189Z,62.20
2022-12-28T02:31:00.850Z,62.20
2022-12-28T02:31:32.472Z,65.10
2022-12-28T02:32:04.030Z,65.10
2022-12-28T02:32:35.598Z,65.10
2022-12-28T02:33:07.180Z,65.20
2022-12-28T02:33:38.769Z,65.20
2022-12-28T02:34:10.330Z,65.40
2022-12-28T02:34:41.883Z,65.70
2022-12-28T02:35:13.584Z,65.80
2022-12-28T02:35:45.155Z,66.10
2022-12-28T02:36:18.716Z,66.00
2022-12-28T02:36:50.496Z,66.10
2022-12-28T02:37:22.073Z,66.10
2022-12-28T02:37:53.632Z,66.20
2022-12-28T02:38:25.183Z,66.20
2022-12-28T02:38:56.796Z,66.20
2022-12-28T02:39:28.354Z,66.20
2022-12-28T02:39:59.912Z,66.20
2022-12-28T02:40:31.485Z,66.20
2022-12-28T02:41:03.048Z,66.20
2022-12-28T02:41:34.610Z,66.40
2022-12-28T02:42:06.221Z,66.30
2022-12-28T02:42:37.819Z,66.20
2022-12-28T02:43:09.399Z,66.40
2022-12-28T02:43:40.994Z,66.40
2022-12-28T02:44:12.581Z,66.20
2022-12-28T02:44:44.136Z,66.30
2022-12-28T02:45:15.723Z,66.20
2022-12-28T02:45:47.357Z,66.30
2022-12-28T02:46:19.042Z,66.50
2022-12-28T02:46:50.772Z,66.40
2022-12-28T02:47:22.361Z,66.40
2022-12-28T02:47:53.974Z,66.50
2022-12-28T02:48:25.564Z,67.10
2022-12-28T02:48:57.138Z,66.40
2022-12-28T02:49:28.744Z,66.50
2022-12-28T02:50:00.312Z,67.10
2022-12-28T02:50:31.889Z,66.50
2022-12-28T02:51:03.453Z,66.50
2022-12-28T02:51:35.024Z,66.50
2022-12-28T02:52:06.611Z,66.50
2022-12-28T02:52:38.192Z,67.30
2022-12-28T02:53:09.753Z,66.50
2022-12-28T02:53:41.338Z,66.50
2022-12-28T02:54:12.913Z,66.60
2022-12-28T02:54:44.491Z,66.60
2022-12-28T02:55:16.257Z,66.60
2022-12-28T02:55:47.836Z,66.70
2022-12-28T02:56:19.450Z,66.60
2022-12-28T02:56:51.051Z,66.60
2022-12-28T02:57:22.611Z,66.50
2022-12-28T02:57:54.194Z,66.70
2022-12-28T02:58:25.756Z,66.60
2022-12-28T02:58:57.344Z,66.70
2022-12-28T02:59:28.947Z,66.70
2022-12-28T03:00:00.524Z,66.70
2022-12-28T03:00:32.079Z,66.70
2022-12-28T03:01:03.748Z,66.70
2022-12-28T03:01:35.536Z,66.80
2022-12-28T03:02:07.341Z,66.80
2022-12-28T03:02:39.157Z,66.80
2022-12-28T03:03:10.966Z,66.80
2022-12-28T03:03:42.614Z,66.80
2022-12-28T03:04:14.189Z,66.80
2022-12-28T03:04:45.786Z,66.80
2022-12-28T03:05:17.370Z,66.80
2022-12-28T03:05:49.015Z,66.90
2022-12-28T03:06:25.546Z,66.80
2022-12-28T03:07:00.060Z,66.80
2022-12-28T03:07:31.625Z,66.90
2022-12-28T03:08:03.230Z,66.90
2022-12-28T03:08:34.815Z,66.80
2022-12-28T03:09:06.390Z,66.80
2022-12-28T03:09:37.963Z,66.80
2022-12-28T03:10:09.562Z,66.80
2022-12-28T03:10:41.146Z,66.50
2022-12-28T03:11:16.063Z,66.50
2022-12-28T03:11:47.743Z,66.50
2022-12-28T03:12:19.358Z,66.50
2022-12-28T03:12:50.931Z,66.50
2022-12-28T03:13:22.505Z,66.50
2022-12-28T03:13:54.097Z,66.50
2022-12-28T03:14:25.649Z,66.50
2022-12-28T03:14:57.205Z,66.50
2022-12-28T03:15:28.801Z,67.20
2022-12-28T03:16:00.418Z,66.50
2022-12-28T03:16:32.018Z,66.40
2022-12-28T03:17:03.579Z,66.40
2022-12-28T03:17:35.149Z,66.50
2022-12-28T03:18:06.708Z,66.50
2022-12-28T03:18:38.288Z,66.50
2022-12-28T03:19:09.898Z,62.70
2022-12-28T03:19:41.484Z,62.50
2022-12-28T03:20:13.044Z,62.50
2022-12-28T03:20:44.596Z,62.60
2022-12-28T03:21:16.163Z,62.70
2022-12-28T03:21:47.730Z,62.50
2022-12-28T03:22:19.287Z,62.60
2022-12-28T03:22:50.854Z,62.70
2022-12-28T03:23:22.433Z,62.70
2022-12-28T03:23:54.011Z,62.80
2022-12-28T03:24:25.581Z,62.80
2022-12-28T03:24:57.197Z,62.80
2022-12-28T03:25:28.797Z,62.80
2022-12-28T03:26:00.371Z,63.00
2022-12-28T03:26:31.957Z,62.80
2022-12-28T03:27:03.535Z,62.90
2022-12-28T03:27:35.217Z,62.90
2022-12-28T03:28:06.786Z,63.00
2022-12-28T03:28:38.344Z,63.00
2022-12-28T03:29:09.903Z,63.00
2022-12-28T03:29:41.458Z,63.00
2022-12-28T03:30:13.053Z,63.10
2022-12-28T03:30:44.649Z,63.10
2022-12-28T03:31:16.278Z,63.00
2022-12-28T03:31:47.873Z,63.00
2022-12-28T03:32:19.455Z,62.90
2022-12-28T03:32:51.059Z,62.90
2022-12-28T03:33:22.681Z,63.00
2022-12-28T03:33:54.271Z,63.00
2022-12-28T03:34:25.878Z,63.00
2022-12-28T03:34:57.484Z,63.00
2022-12-28T03:35:29.079Z,63.00
2022-12-28T03:36:00.676Z,63.80
2022-12-28T03:36:32.250Z,63.00
2022-12-28T03:37:03.915Z,63.00
2022-12-28T03:37:35.483Z,63.00
2022-12-28T03:38:07.089Z,63.00
2022-12-28T03:38:38.734Z,63.00
2022-12-28T03:39:10.494Z,63.00
2022-12-28T03:39:42.132Z,63.00
2022-12-28T03:40:13.994Z,63.00
2022-12-28T03:40:45.683Z,63.00
2022-12-28T03:41:17.412Z,63.00
2022-12-28T03:41:49.053Z,63.00
2022-12-28T03:42:20.718Z,63.00
2022-12-28T03:42:52.295Z,63.00
2022-12-28T03:43:23.960Z,63.00
2022-12-28T03:43:55.594Z,63.30
2022-12-28T03:44:27.168Z,63.10
2022-12-28T03:44:58.843Z,63.10
2022-12-28T03:45:46.581Z,63.10
2022-12-28T03:46:18.932Z,63.10
2022-12-28T03:46:50.490Z,63.10
2022-12-28T03:47:22.132Z,63.10
2022-12-28T03:47:53.784Z,63.20
2022-12-28T03:48:25.353Z,63.20
2022-12-28T03:48:56.929Z,63.20
2022-12-28T03:49:28.508Z,63.20
2022-12-28T03:50:00.077Z,63.20
2022-12-28T03:50:31.686Z,63.20
2022-12-28T03:51:03.250Z,63.10
2022-12-28T03:51:34.814Z,63.20
2022-12-28T03:52:06.370Z,63.20
2022-12-28T03:52:37.926Z,63.20
2022-12-28T03:53:09.494Z,63.20
2022-12-28T03:53:41.097Z,63.20
2022-12-28T03:54:12.693Z,63.20
2022-12-28T03:54:44.330Z,63.20
2022-12-28T03:55:15.921Z,63.20
2022-12-28T03:55:47.495Z,63.20
2022-12-28T03:56:19.065Z,64.00
2022-12-28T03:56:50.647Z,63.20
2022-12-28T03:57:22.218Z,63.20
2022-12-28T03:57:53.800Z,63.10
2022-12-28T03:58:25.505Z,63.20
2022-12-28T03:58:57.112Z,62.80
2022-12-28T03:59:28.710Z,62.80
2022-12-28T04:00:00.295Z,62.80
2022-12-28T04:00:31.886Z,62.80
2022-12-28T04:01:03.499Z,63.00
2022-12-28T04:01:35.193Z,62.90
2022-12-28T04:02:06.915Z,62.80
2022-12-28T04:02:38.688Z,63.00
2022-12-28T04:03:10.464Z,62.90
2022-12-28T04:03:42.135Z,62.80
2022-12-28T04:04:13.729Z,62.80
2022-12-28T04:04:45.287Z,62.80
2022-12-28T04:05:16.868Z,62.70
2022-12-28T04:05:48.460Z,62.70
2022-12-28T04:06:20.075Z,62.80
2022-12-28T04:06:51.675Z,62.70
2022-12-28T04:07:23.255Z,62.60
2022-12-28T04:07:54.821Z,62.50
2022-12-28T04:08:26.386Z,62.70
2022-12-28T04:08:57.972Z,62.70
2022-12-28T04:09:29.539Z,62.70
2022-12-28T04:10:01.098Z,62.70
2022-12-28T04:10:32.785Z,62.80
2022-12-28T04:11:04.487Z,62.70
2022-12-28T04:11:36.111Z,62.80
2022-12-28T04:12:07.683Z,62.80
2022-12-28T04:12:39.266Z,62.70
2022-12-28T04:13:10.834Z,62.80
2022-12-28T04:13:42.392Z,62.80
2022-12-28T04:14:13.943Z,62.70
2022-12-28T04:14:45.524Z,62.80
2022-12-28T04:15:17.102Z,62.70
2022-12-28T04:15:48.737Z,62.70
2022-12-28T04:16:20.451Z,62.80
2022-12-28T04:16:52.049Z,62.80
2022-12-28T04:17:23.633Z,62.80
2022-12-28T04:17:55.198Z,62.90
2022-12-28T04:18:26.761Z,62.80
2022-12-28T04:18:58.330Z,62.90
2022-12-28T04:19:29.901Z,63.00
2022-12-28T04:20:01.471Z,62.90
2022-12-28T04:20:33.082Z,62.90
2022-12-28T04:21:04.653Z,62.90
2022-12-28T04:21:36.241Z,62.90
2022-12-28T04:22:07.857Z,62.90
2022-12-28T04:22:39.427Z,62.90
2022-12-28T04:23:10.999Z,62.90
2022-12-28T04:23:42.573Z,62.90
2022-12-28T04:24:14.132Z,62.90
2022-12-28T04:24:45.705Z,62.90
2022-12-28T04:25:17.294Z,63.00
2022-12-28T04:25:48.874Z,62.90
2022-12-28T04:26:20.474Z,62.90
2022-12-28T04:26:52.032Z,62.90
2022-12-28T04:27:23.591Z,63.00
2022-12-28T04:27:55.158Z,62.90
2022-12-28T04:28:26.768Z,62.90
2022-12-28T04:28:58.331Z,62.90
2022-12-28T04:29:29.897Z,63.00
2022-12-28T04:30:01.476Z,62.90
2022-12-28T04:30:33.035Z,62.90
2022-12-28T04:31:04.657Z,62.90
2022-12-28T04:31:36.306Z,62.90
2022-12-28T04:32:07.938Z,62.90
2022-12-28T04:32:39.503Z,62.90
2022-12-28T04:33:11.072Z,62.90
2022-12-28T04:33:42.668Z,62.90
2022-12-28T04:34:14.249Z,62.90
2022-12-28T04:34:48.776Z,62.90
2022-12-28T04:35:20.718Z,63.00
2022-12-28T04:35:52.336Z,62.90
2022-12-28T04:36:23.901Z,63.00
2022-12-28T04:36:55.466Z,62.90
2022-12-28T04:37:27.028Z,63.00
2022-12-28T04:37:58.579Z,63.00
2022-12-28T04:38:30.134Z,62.90
2022-12-28T04:39:01.717Z,63.00
2022-12-28T04:39:55.420Z,63.00
2022-12-28T04:40:24.882Z,63.00
2022-12-28T04:40:56.476Z,62.90
2022-12-28T04:41:28.041Z,63.00
2022-12-28T04:41:59.603Z,63.00
2022-12-28T04:42:31.204Z,62.80
2022-12-28T04:43:02.762Z,63.00
2022-12-28T04:43:34.473Z,62.90
2022-12-28T04:44:06.080Z,63.00
2022-12-28T04:44:37.650Z,62.90
2022-12-28T04:45:09.252Z,62.90
2022-12-28T04:45:40.825Z,62.90
2022-12-28T04:46:12.395Z,63.00
2022-12-28T04:46:44.050Z,63.00
2022-12-28T04:47:15.677Z,63.00
2022-12-28T04:47:47.322Z,63.10
2022-12-28T04:48:18.893Z,63.00
2022-12-28T04:48:50.470Z,63.00
2022-12-28T04:49:22.200Z,63.10
2022-12-28T04:49:53.885Z,63.00
2022-12-28T04:50:25.471Z,62.90
2022-12-28T04:50:57.102Z,63.00
2022-12-28T04:51:28.695Z,62.90
2022-12-28T04:52:00.249Z,62.90
2022-12-28T04:52:31.859Z,62.80
2022-12-28T04:53:03.452Z,62.80
2022-12-28T04:53:35.034Z,62.80
2022-12-28T04:54:06.586Z,62.80
2022-12-28T04:54:38.160Z,62.80
2022-12-28T04:55:31.296Z,62.70
2022-12-28T04:56:01.293Z,62.70
2022-12-28T04:56:32.858Z,62.70
2022-12-28T04:57:04.454Z,62.70
2022-12-28T04:57:36.022Z,62.80
2022-12-28T04:58:07.596Z,62.70
2022-12-28T04:58:39.163Z,62.70
2022-12-28T04:59:10.759Z,62.80
2022-12-28T04:59:42.331Z,62.70
2022-12-28T05:00:13.877Z,62.70
2022-12-28T05:00:45.495Z,62.70
2022-12-28T05:01:17.233Z,62.70
2022-12-28T05:01:49.064Z,62.80
2022-12-28T05:02:20.823Z,62.80
2022-12-28T05:02:52.645Z,62.80
2022-12-28T05:03:24.532Z,62.80
2022-12-28T05:03:59.600Z,62.90
2022-12-28T05:04:31.598Z,63.00
2022-12-28T05:05:03.380Z,62.90
2022-12-28T05:05:35.002Z,62.90
2022-12-28T05:06:06.565Z,63.00
2022-12-28T05:06:38.156Z,63.00
2022-12-28T05:07:09.708Z,62.90
2022-12-28T05:07:41.301Z,62.90
2022-12-28T05:08:13.006Z,63.00
2022-12-28T05:08:44.605Z,63.00
2022-12-28T05:09:16.164Z,63.00
2022-12-28T05:09:47.735Z,63.00
2022-12-28T05:10:19.329Z,63.10
2022-12-28T05:10:50.891Z,63.00
2022-12-28T05:11:22.450Z,63.00
2022-12-28T05:11:54.033Z,63.90
2022-12-28T05:12:25.651Z,63.00
2022-12-28T05:12:57.243Z,63.80
2022-12-28T05:13:28.845Z,63.10
2022-12-28T05:14:00.438Z,63.10
2022-12-28T05:14:36.779Z,63.00
2022-12-28T05:15:08.803Z,63.10
2022-12-28T05:15:40.381Z,63.00
2022-12-28T05:16:12.014Z,63.00
2022-12-28T05:16:43.580Z,63.00
2022-12-28T05:17:15.149Z,63.00
2022-12-28T05:17:46.733Z,63.00
2022-12-28T05:18:18.292Z,63.00
2022-12-28T05:18:49.896Z,63.00
2022-12-28T05:19:21.449Z,63.00
2022-12-28T05:19:53.020Z,63.00
2022-12-28T05:20:24.581Z,63.00
2022-12-28T05:20:56.143Z,63.00
2022-12-28T05:21:27.716Z,63.00
2022-12-28T05:21:59.273Z,63.10
2022-12-28T05:22:30.863Z,63.10
2022-12-28T05:23:02.447Z,63.00
2022-12-28T05:23:34.022Z,63.00
2022-12-28T05:24:05.599Z,63.10
2022-12-28T05:24:37.238Z,63.10
2022-12-28T05:25:08.815Z,63.00
2022-12-28T05:25:40.384Z,63.10
2022-12-28T05:26:11.967Z,63.00
2022-12-28T05:26:43.551Z,63.10
2022-12-28T05:27:15.122Z,63.10
2022-12-28T05:27:46.724Z,63.00
2022-12-28T05:28:18.297Z,63.00
2022-12-28T05:28:49.946Z,63.00
2022-12-28T05:29:21.518Z,63.10
2022-12-28T05:29:53.100Z,63.10
2022-12-28T05:30:24.666Z,63.10
2022-12-28T05:30:56.237Z,63.10
2022-12-28T05:31:27.872Z,63.10
2022-12-28T05:31:59.488Z,63.10
2022-12-28T05:32:31.045Z,63.10
2022-12-28T05:33:02.627Z,63.10
2022-12-28T05:33:34.211Z,63.00
2022-12-28T05:34:05.779Z,63.10
2022-12-28T05:34:37.551Z,63.10
2022-12-28T05:35:09.119Z,63.10
2022-12-28T05:35:40.692Z,63.20
2022-12-28T05:36:12.258Z,63.10
2022-12-28T05:36:43.862Z,63.10
2022-12-28T05:37:21.686Z,63.10
2022-12-28T05:37:53.624Z,63.10
2022-12-28T05:38:25.183Z,63.10
2022-12-28T05:38:56.798Z,63.10
2022-12-28T05:39:28.413Z,63.20
2022-12-28T05:39:59.978Z,63.20
2022-12-28T05:40:31.530Z,63.10
2022-12-28T05:41:03.099Z,63.00
2022-12-28T05:41:34.649Z,63.00
2022-12-28T05:42:06.218Z,63.10
2022-12-28T05:42:37.769Z,63.00
2022-12-28T05:43:09.375Z,62.90
2022-12-28T05:43:40.956Z,62.90
2022-12-28T05:44:12.560Z,62.80
2022-12-28T05:44:44.122Z,62.80
2022-12-28T05:45:15.705Z,62.80
2022-12-28T05:45:47.278Z,62.80
2022-12-28T05:46:18.878Z,62.80
2022-12-28T05:46:50.515Z,62.80
2022-12-28T05:47:22.114Z,62.70
2022-12-28T05:47:53.676Z,62.80
2022-12-28T05:48:25.251Z,62.80
2022-12-28T05:48:56.966Z,62.80
2022-12-28T05:49:28.544Z,62.90
2022-12-28T05:50:00.142Z,62.80
2022-12-28T05:50:31.738Z,62.80
2022-12-28T05:51:03.326Z,62.80
2022-12-28T05:51:34.909Z,62.80
2022-12-28T05:52:06.499Z,62.90
2022-12-28T05:52:38.964Z,62.90
2022-12-28T05:53:10.654Z,62.90
2022-12-28T05:53:42.318Z,63.00
2022-12-28T05:54:13.885Z,63.10
2022-12-28T05:54:45.449Z,63.00
2022-12-28T05:55:17.015Z,63.00
2022-12-28T05:55:48.607Z,63.00
2022-12-28T05:56:20.176Z,63.10
2022-12-28T05:56:51.731Z,63.00
2022-12-28T05:57:23.298Z,63.00
2022-12-28T05:57:54.880Z,63.10
2022-12-28T05:58:26.432Z,63.10
2022-12-28T05:58:58.019Z,63.10
2022-12-28T05:59:29.589Z,63.00
2022-12-28T06:00:01.163Z,63.10
2022-12-28T06:00:32.793Z,63.10
2022-12-28T06:01:04.437Z,63.10
2022-12-28T06:01:36.074Z,63.10
2022-12-28T06:02:07.859Z,63.10
2022-12-28T06:02:39.583Z,63.10
2022-12-28T06:03:11.288Z,63.10
2022-12-28T06:03:42.950Z,63.10
2022-12-28T06:04:14.589Z,63.10
2022-12-28T06:04:46.141Z,63.10
2022-12-28T06:05:17.726Z,64.00
2022-12-28T06:05:49.316Z,63.10
2022-12-28T06:06:20.876Z,63.10
2022-12-28T06:06:52.423Z,63.10
2022-12-28T06:07:24.004Z,63.20
2022-12-28T06:07:55.559Z,63.20
2022-12-28T06:08:27.119Z,63.10
2022-12-28T06:08:58.717Z,63.10
2022-12-28T06:09:30.297Z,63.10
2022-12-28T06:10:01.886Z,63.10
2022-12-28T06:10:33.488Z,63.10
2022-12-28T06:11:05.121Z,63.10
2022-12-28T06:11:36.716Z,63.10
2022-12-28T06:12:08.353Z,63.20
2022-12-28T06:12:39.987Z,63.10
2022-12-28T06:13:11.558Z,63.10
2022-12-28T06:13:43.131Z,63.10
2022-12-28T06:14:14.892Z,63.10
2022-12-28T06:14:46.514Z,63.10
2022-12-28T06:15:18.088Z,63.20
2022-12-28T06:15:49.669Z,63.10
2022-12-28T06:16:21.301Z,63.10
2022-12-28T06:16:53.010Z,63.10
2022-12-28T06:17:24.633Z,63.10
2022-12-28T06:17:56.207Z,63.10
2022-12-28T06:18:27.773Z,63.10
2022-12-28T06:18:59.512Z,63.20
2022-12-28T06:19:31.066Z,63.10
2022-12-28T06:20:02.698Z,63.10
2022-12-28T06:20:34.299Z,63.10
2022-12-28T06:21:05.859Z,63.10
2022-12-28T06:21:37.447Z,63.20
2022-12-28T06:22:09.004Z,63.10
2022-12-28T06:22:40.574Z,63.10
2022-12-28T06:23:12.145Z,63.10
2022-12-28T06:23:43.734Z,63.10
2022-12-28T06:24:15.323Z,63.10
2022-12-28T06:24:46.881Z,63.10
2022-12-28T06:25:18.473Z,63.10
2022-12-28T06:25:50.047Z,63.10
2022-12-28T06:26:21.626Z,63.10
2022-12-28T06:26:53.178Z,63.10
2022-12-28T06:27:24.740Z,63.20
2022-12-28T06:27:56.326Z,63.20
2022-12-28T06:28:27.906Z,63.10
2022-12-28T06:28:59.623Z,63.10
2022-12-28T06:29:31.224Z,63.10
2022-12-28T06:30:02.853Z,63.10
2022-12-28T06:30:34.428Z,63.10
2022-12-28T06:31:06.014Z,63.00
2022-12-28T06:31:37.703Z,63.00
2022-12-28T06:32:09.344Z,63.00
2022-12-28T06:32:40.983Z,62.90
2022-12-28T06:33:12.600Z,63.00
2022-12-28T06:33:44.191Z,62.90
2022-12-28T06:34:15.765Z,62.90
2022-12-28T06:34:47.883Z,62.90
2022-12-28T06:35:19.496Z,62.90
2022-12-28T06:35:51.095Z,62.90
2022-12-28T06:36:22.694Z,62.90
2022-12-28T06:36:54.252Z,63.00
2022-12-28T06:37:25.816Z,62.80
2022-12-28T06:37:57.384Z,62.90
2022-12-28T06:38:28.973Z,63.00
2022-12-28T06:39:00.559Z,63.00
2022-12-28T06:39:32.133Z,63.00
2022-12-28T06:40:03.706Z,63.00
2022-12-28T06:41:10.757Z,63.00
2022-12-28T06:41:26.825Z,63.10
2022-12-28T06:41:58.451Z,63.00
2022-12-28T06:42:30.021Z,63.00
2022-12-28T06:43:01.593Z,63.80
2022-12-28T06:43:33.169Z,63.10
2022-12-28T06:44:04.760Z,63.10
2022-12-28T06:44:42.378Z,63.10
2022-12-28T06:45:16.063Z,63.20
2022-12-28T06:45:47.653Z,63.10
2022-12-28T06:46:19.303Z,63.10
2022-12-28T06:46:50.934Z,63.10
2022-12-28T06:47:22.504Z,63.20
2022-12-28T06:47:54.070Z,63.20
2022-12-28T06:48:25.723Z,63.20
2022-12-28T06:48:57.415Z,63.20
2022-12-28T06:49:28.977Z,63.20
2022-12-28T06:50:00.579Z,63.20
2022-12-28T06:50:36.783Z,63.20